N123PC RPLC-RPLL
Flight info
| Callsign | N123PC |
|---|---|
| Flight time | 0h -28m |
| Altitude | 4500 |
| Route | RPLB DCT RPLL DCT RPUX |
| Aircraft | S22T/L-SDGRY/S |
Departure
| Time | 2026-05-08 08:56 |
|---|---|
| Airport | Clark International Airport / Clark Air Base (RPLC) |
Arrival
| Time | 2026-05-08 08:28 |
|---|---|
| Airport | Ninoy Aquino International Airport (RPLL) |
| Time | Latitude | Longitude | Altitude | Speed | Heading |
|---|---|---|---|---|---|
| 2026-05-08 08:28 | 14.51900 | 121.01033 | 62 ft | 2 kts | 38° |
| 2026-05-08 08:28 | 14.51932 | 121.00994 | 59 ft | 13 kts | 314° |
| 2026-05-08 08:28 | 14.52017 | 121.00907 | 62 ft | 21 kts | 315° |
| 2026-05-08 08:28 | 14.52127 | 121.00795 | 64 ft | 11 kts | 315° |
| 2026-05-08 08:29 | 14.52180 | 121.00752 | 64 ft | 12 kts | 356° |
| 2026-05-08 08:29 | 14.52267 | 121.00754 | 62 ft | 15 kts | 313° |
| 2026-05-08 08:29 | 14.52362 | 121.00656 | 57 ft | 23 kts | 316° |
| 2026-05-08 08:29 | 14.52483 | 121.00531 | 64 ft | 24 kts | 315° |
| 2026-05-08 08:30 | 14.52543 | 121.00469 | 64 ft | 19 kts | 314° |
| 2026-05-08 08:30 | 14.52594 | 121.00328 | 64 ft | 24 kts | 278° |
| 2026-05-08 08:30 | 14.52639 | 121.00210 | 62 ft | 0 kts | 193° |
| 2026-05-08 08:31 | 14.52656 | 121.00185 | 64 ft | 9 kts | 341° |
| 2026-05-08 08:31 | 14.52648 | 121.00157 | 64 ft | 0 kts | 235° |
| 2026-05-08 08:38 | 14.52648 | 121.00156 | 64 ft | 0 kts | 232° |
| 2026-05-08 08:38 | 14.52634 | 121.00157 | 61 ft | 6 kts | 149° |
| 2026-05-08 08:39 | 14.52589 | 121.00180 | 64 ft | 9 kts | 158° |
| 2026-05-08 08:39 | 14.52540 | 121.00227 | 64 ft | 11 kts | 133° |
| 2026-05-08 08:39 | 14.52486 | 121.00283 | 62 ft | 11 kts | 137° |
| 2026-05-08 08:39 | 14.52429 | 121.00336 | 61 ft | 11 kts | 136° |
| 2026-05-08 08:40 | 14.52374 | 121.00389 | 63 ft | 11 kts | 135° |
| 2026-05-08 08:40 | 14.52369 | 121.00394 | 63 ft | 0 kts | 135° |
| 2026-05-08 08:41 | 14.52326 | 121.00439 | 62 ft | 36 kts | 135° |
| 2026-05-08 08:41 | 14.52026 | 121.00752 | 92 ft | 78 kts | 134° |
| 2026-05-08 08:42 | 14.51685 | 121.01144 | 394 ft | 74 kts | 129° |
| 2026-05-08 08:42 | 14.51330 | 121.01562 | 666 ft | 76 kts | 127° |
| 2026-05-08 08:42 | 14.50949 | 121.01959 | 929 ft | 79 kts | 131° |
| 2026-05-08 08:42 | 14.50540 | 121.02336 | 1174 ft | 82 kts | 133° |
| 2026-05-08 08:43 | 14.50150 | 121.02733 | 1483 ft | 79 kts | 126° |
| 2026-05-08 08:43 | 14.49799 | 121.03207 | 1523 ft | 87 kts | 131° |
| 2026-05-08 08:43 | 14.49252 | 121.03394 | 1511 ft | 95 kts | 196° |
| 2026-05-08 08:43 | 14.48874 | 121.02832 | 1533 ft | 97 kts | 241° |
| 2026-05-08 08:44 | 14.48690 | 121.02131 | 1471 ft | 108 kts | 273° |
| 2026-05-08 08:44 | 14.48945 | 121.01412 | 1465 ft | 114 kts | 302° |
| 2026-05-08 08:44 | 14.49405 | 121.00585 | 1481 ft | 146 kts | 302° |
| 2026-05-08 08:44 | 14.49957 | 120.99631 | 1528 ft | 161 kts | 304° |
| 2026-05-08 08:45 | 14.50575 | 120.98609 | 1520 ft | 174 kts | 304° |
| 2026-05-08 08:45 | 14.51211 | 120.97556 | 1568 ft | 176 kts | 304° |
| 2026-05-08 08:45 | 14.51869 | 120.96504 | 1481 ft | 164 kts | 303° |
| 2026-05-08 08:45 | 14.52445 | 120.95540 | 1498 ft | 154 kts | 304° |
| 2026-05-08 08:46 | 14.52998 | 120.94572 | 1386 ft | 159 kts | 302° |
| 2026-05-08 08:46 | 14.53534 | 120.93590 | 1329 ft | 155 kts | 300° |
| 2026-05-08 08:46 | 14.54041 | 120.92626 | 1323 ft | 150 kts | 302° |
| 2026-05-08 08:46 | 14.54788 | 120.91944 | 1324 ft | 143 kts | 335° |
| 2026-05-08 08:47 | 14.55633 | 120.91438 | 1321 ft | 141 kts | 338° |
| 2026-05-08 08:47 | 14.56536 | 120.91084 | 1328 ft | 138 kts | 346° |
| 2026-05-08 08:47 | 14.57441 | 120.90756 | 1325 ft | 137 kts | 346° |
| 2026-05-08 08:47 | 14.58339 | 120.90431 | 1326 ft | 136 kts | 346° |
| 2026-05-08 08:48 | 14.59231 | 120.90117 | 1323 ft | 135 kts | 346° |
| 2026-05-08 08:48 | 14.60139 | 120.89940 | 1322 ft | 132 kts | 358° |
| 2026-05-08 08:48 | 14.61054 | 120.89801 | 1331 ft | 134 kts | 357° |
| 2026-05-08 08:48 | 14.61979 | 120.89660 | 1333 ft | 135 kts | 357° |
| 2026-05-08 08:49 | 14.62907 | 120.89522 | 1334 ft | 135 kts | 357° |
| 2026-05-08 08:49 | 14.63827 | 120.89383 | 1336 ft | 136 kts | 358° |
| 2026-05-08 08:49 | 14.64765 | 120.89238 | 1339 ft | 136 kts | 356° |
| 2026-05-08 08:49 | 14.65704 | 120.89104 | 1338 ft | 137 kts | 357° |
| 2026-05-08 08:50 | 14.66641 | 120.88868 | 1340 ft | 141 kts | 343° |
| 2026-05-08 08:50 | 14.67563 | 120.88514 | 1347 ft | 142 kts | 343° |
| 2026-05-08 08:50 | 14.68487 | 120.88155 | 1341 ft | 142 kts | 343° |
| 2026-05-08 08:50 | 14.69403 | 120.87787 | 1337 ft | 141 kts | 343° |
| 2026-05-08 08:51 | 14.70311 | 120.87415 | 1340 ft | 140 kts | 343° |
| 2026-05-08 08:51 | 14.71183 | 120.87050 | 1445 ft | 131 kts | 343° |
| 2026-05-08 08:51 | 14.72001 | 120.86702 | 1495 ft | 129 kts | 342° |
| 2026-05-08 08:51 | 14.72852 | 120.86344 | 1499 ft | 135 kts | 343° |
| 2026-05-08 08:52 | 14.73744 | 120.85975 | 1504 ft | 140 kts | 343° |
| 2026-05-08 08:52 | 14.74656 | 120.85598 | 1512 ft | 143 kts | 343° |
| 2026-05-08 08:52 | 14.75580 | 120.85222 | 1509 ft | 142 kts | 343° |
| 2026-05-08 08:52 | 14.76496 | 120.84847 | 1509 ft | 141 kts | 343° |
| 2026-05-08 08:53 | 14.77412 | 120.84468 | 1507 ft | 143 kts | 343° |
| 2026-05-08 08:53 | 14.78341 | 120.84090 | 1508 ft | 144 kts | 343° |
| 2026-05-08 08:53 | 14.79271 | 120.83715 | 1510 ft | 143 kts | 343° |
| 2026-05-08 08:53 | 14.80176 | 120.83344 | 1510 ft | 141 kts | 343° |
| 2026-05-08 08:54 | 14.81079 | 120.82971 | 1506 ft | 139 kts | 342° |
| 2026-05-08 08:54 | 14.81942 | 120.82613 | 1646 ft | 129 kts | 342° |
| 2026-05-08 08:54 | 14.82774 | 120.82268 | 1752 ft | 129 kts | 343° |
| 2026-05-08 08:54 | 14.83609 | 120.81926 | 1854 ft | 129 kts | 343° |
| 2026-05-08 08:55 | 14.84441 | 120.81587 | 1925 ft | 129 kts | 343° |
| 2026-05-08 08:55 | 14.85274 | 120.81245 | 2033 ft | 128 kts | 343° |
| 2026-05-08 08:55 | 14.86114 | 120.80896 | 2187 ft | 132 kts | 339° |
| 2026-05-08 08:55 | 14.86878 | 120.80391 | 2563 ft | 130 kts | 327° |
| 2026-05-08 08:56 | 14.87621 | 120.79847 | 2883 ft | 132 kts | 329° |
| 2026-05-08 08:56 | 14.88362 | 120.79293 | 3215 ft | 134 kts | 328° |
| 2026-05-08 08:56 | 14.89122 | 120.78732 | 3543 ft | 134 kts | 328° |
| 2026-05-08 08:56 | 14.89882 | 120.78177 | 3895 ft | 134 kts | 328° |
| 2026-05-08 08:57 | 14.90644 | 120.77626 | 4209 ft | 133 kts | 328° |
| 2026-05-08 08:57 | 14.91407 | 120.77077 | 4501 ft | 138 kts | 329° |
| 2026-05-08 08:57 | 14.92254 | 120.76487 | 4521 ft | 151 kts | 329° |
| 2026-05-08 08:57 | 14.93155 | 120.75864 | 4514 ft | 157 kts | 329° |
| 2026-05-08 08:58 | 14.94072 | 120.75224 | 4516 ft | 160 kts | 329° |
| 2026-05-08 08:58 | 14.95003 | 120.74570 | 4515 ft | 163 kts | 329° |
| 2026-05-08 08:58 | 14.95952 | 120.73928 | 4509 ft | 163 kts | 330° |
| 2026-05-08 08:58 | 14.96897 | 120.73287 | 4516 ft | 163 kts | 329° |
| 2026-05-08 08:59 | 14.97843 | 120.72636 | 4509 ft | 162 kts | 329° |
| 2026-05-08 08:59 | 14.98784 | 120.71993 | 4507 ft | 162 kts | 329° |
| 2026-05-08 08:59 | 14.99713 | 120.71359 | 4503 ft | 162 kts | 329° |
| 2026-05-08 08:59 | 15.00655 | 120.70713 | 4511 ft | 164 kts | 329° |
| 2026-05-08 09:00 | 15.01611 | 120.70050 | 4510 ft | 166 kts | 329° |
| 2026-05-08 09:00 | 15.02574 | 120.69382 | 4514 ft | 167 kts | 329° |
| 2026-05-08 09:00 | 15.03540 | 120.68706 | 4504 ft | 168 kts | 329° |
| 2026-05-08 09:00 | 15.04500 | 120.68014 | 4503 ft | 169 kts | 324° |
| 2026-05-08 09:01 | 15.05351 | 120.67166 | 4507 ft | 170 kts | 316° |
| 2026-05-08 09:01 | 15.06076 | 120.66204 | 4468 ft | 169 kts | 298° |
| 2026-05-08 09:01 | 15.06601 | 120.65160 | 4274 ft | 158 kts | 305° |
| 2026-05-08 09:01 | 15.07354 | 120.64386 | 4064 ft | 150 kts | 327° |
| 2026-05-08 09:02 | 15.08187 | 120.63768 | 3859 ft | 145 kts | 327° |
| 2026-05-08 09:02 | 15.09000 | 120.63165 | 3656 ft | 142 kts | 327° |
| 2026-05-08 09:02 | 15.09794 | 120.62568 | 3453 ft | 140 kts | 328° |
| 2026-05-08 09:02 | 15.10585 | 120.61982 | 3251 ft | 140 kts | 328° |
| 2026-05-08 09:03 | 15.11371 | 120.61398 | 3069 ft | 139 kts | 327° |
| 2026-05-08 09:03 | 15.12158 | 120.60816 | 2883 ft | 142 kts | 327° |
| 2026-05-08 09:03 | 15.12960 | 120.60222 | 2683 ft | 141 kts | 326° |
| 2026-05-08 09:03 | 15.13754 | 120.59631 | 2502 ft | 140 kts | 326° |
| 2026-05-08 09:04 | 15.14552 | 120.59039 | 2318 ft | 142 kts | 326° |
| 2026-05-08 09:04 | 15.15363 | 120.58444 | 2033 ft | 147 kts | 336° |
| 2026-05-08 09:04 | 15.16343 | 120.58030 | 1740 ft | 149 kts | 347° |
| 2026-05-08 09:04 | 15.17331 | 120.57879 | 1660 ft | 137 kts | 1° |
| 2026-05-08 09:05 | 15.18252 | 120.57765 | 1399 ft | 140 kts | 353° |
| 2026-05-08 09:05 | 15.19170 | 120.57747 | 1326 ft | 123 kts | 11° |
| 2026-05-08 09:05 | 15.20020 | 120.57902 | 1237 ft | 117 kts | 13° |
| 2026-05-08 09:05 | 15.20798 | 120.58028 | 1123 ft | 115 kts | 16° |
| 2026-05-08 09:06 | 15.21567 | 120.58238 | 962 ft | 109 kts | 25° |
| 2026-05-08 09:06 | 15.22257 | 120.58518 | 847 ft | 101 kts | 34° |
| 2026-05-08 09:06 | 15.22904 | 120.58622 | 674 ft | 94 kts | 315° |
| 2026-05-08 09:06 | 15.23090 | 120.58559 | 1618 ft | 56 kts | 33° |
| 2026-05-08 09:07 | 15.23768 | 120.58756 | 1088 ft | 111 kts | 22° |
| 2026-05-08 09:07 | 15.24446 | 120.58548 | 1031 ft | 107 kts | 317° |
| 2026-05-08 09:07 | 15.24614 | 120.57870 | 984 ft | 102 kts | 242° |
| 2026-05-08 09:07 | 15.24117 | 120.57532 | 1102 ft | 83 kts | 174° |
| 2026-05-08 09:08 | 15.23496 | 120.57585 | 1076 ft | 97 kts | 180° |
| 2026-05-08 09:08 | 15.22842 | 120.57561 | 986 ft | 90 kts | 173° |
| 2026-05-08 09:08 | 15.22238 | 120.57565 | 850 ft | 87 kts | 180° |
| 2026-05-08 09:08 | 15.21665 | 120.57427 | 774 ft | 83 kts | 193° |
| 2026-05-08 09:09 | 15.21122 | 120.57240 | 701 ft | 81 kts | 192° |
| 2026-05-08 09:09 | 15.20605 | 120.57028 | 585 ft | 77 kts | 194° |
| 2026-05-08 09:09 | 15.20118 | 120.56841 | 438 ft | 72 kts | 193° |
| 2026-05-08 09:09 | 15.19740 | 120.56698 | 432 ft | 49 kts | 202° |
| 2026-05-08 09:10 | 15.19528 | 120.56612 | 432 ft | 21 kts | 198° |
| 2026-05-08 09:10 | 15.19399 | 120.56564 | 431 ft | 19 kts | 195° |
| 2026-05-08 09:10 | 15.19276 | 120.56517 | 428 ft | 19 kts | 184° |
| 2026-05-08 09:10 | 15.19159 | 120.56469 | 430 ft | 18 kts | 201° |
| 2026-05-08 09:11 | 15.19141 | 120.56349 | 430 ft | 21 kts | 291° |
| 2026-05-08 09:11 | 15.19150 | 120.56323 | 430 ft | 0 kts | 291° |
| 2026-05-08 09:11 | 15.19156 | 120.56308 | 431 ft | 6 kts | 291° |
| 2026-05-08 09:11 | 15.19180 | 120.56244 | 431 ft | 13 kts | 291° |
| 2026-05-08 09:12 | 15.19145 | 120.56159 | 431 ft | 17 kts | 200° |
| 2026-05-08 09:12 | 15.19103 | 120.56067 | 426 ft | 20 kts | 292° |
| 2026-05-08 09:12 | 15.19020 | 120.55984 | 426 ft | 16 kts | 200° |
| 2026-05-08 09:12 | 15.18914 | 120.55945 | 431 ft | 17 kts | 201° |
| 2026-05-08 09:13 | 15.18906 | 120.55833 | 428 ft | 21 kts | 290° |
| 2026-05-08 09:13 | 15.18959 | 120.55678 | 425 ft | 25 kts | 292° |
| 2026-05-08 09:13 | 15.19123 | 120.55609 | 431 ft | 28 kts | 346° |
| 2026-05-08 09:13 | 15.19128 | 120.55443 | 431 ft | 27 kts | 245° |
| 2026-05-08 09:14 | 15.19050 | 120.55262 | 427 ft | 28 kts | 248° |
| 2026-05-08 09:14 | 15.18967 | 120.55079 | 431 ft | 28 kts | 237° |
| 2026-05-08 09:14 | 15.18892 | 120.54899 | 430 ft | 28 kts | 243° |
| 2026-05-08 09:14 | 15.18810 | 120.54720 | 430 ft | 28 kts | 249° |
| 2026-05-08 09:15 | 15.18765 | 120.54598 | 425 ft | 7 kts | 249° |
| 2026-05-08 09:15 | 15.18777 | 120.54582 | 430 ft | 4 kts | 64° |
| 2026-05-08 09:15 | 15.18777 | 120.54583 | 430 ft | 0 kts | 64° |